KLVM

Mission Field Airport

Livingston, Montana, USA
METAR KLVM 201553Z AUTO 10014KT 5SM HZ OVC019 12/08 A3023 RMK AO2 SLP212 T01220083
Observed Flight Rules
Aug-20 @ 15:53 UTC (32 minutes ago) Marginal Visual Flight Rules
Wind Visibility Clouds Conditions
100° at 14 knots 5 miles
  • Overcast at 1,900' AGL
  • Haze
Temperatures Readings
Current 12°C / 54°F
Dewpoint 8°C / 46°F
Humidity 77%
Altimeter 30.23" Hg
Pressure 1021.2 hPa
Elevation 1418
METAR KLVM 201553Z AUTO 10014KT 5SM HZ OVC019 12/08 A3023 RMK AO2 SLP212 T01220083
Observed Flight Rules
Aug-20 @ 15:53 UTC
(32 minutes ago)
MVFR
Wind Visibility
100° at 14 knots 5 miles
Clouds
  • Overcast at 1,900' AGL
Conditions
  • Haze
Temperature Dewpoint
12°C / 54°F 8°C / 46°F
Humidity Altimeter Pressure
77% 30.23" Hg 1021.2 hPa